Ashland, Maine
Current Conditions -  °F | °C
As of 5:35 AM on Wednesday 22 Oct 2014 (Local Time) from KPQI Reporting Station
Broken Clouds Broken Clouds  
Wind Chill:   Ceiling: 4400
Heat Index:   Visibility: 10mi
Dew Point: -2°   Wind: 7mph
Humidity: 70%   Direction: 10°N
Pressure: 30.32"   Gusts: NA
Location:  46.63°N, 68.41°W
Report Text: KPQI 220935Z AUTO 01006KT 10SM BKN044 03/M02 A3032 RMK AO1
Loading
Personal Weather Stations






























Interactive Weather Map
Tropical Storm Tracking
New forecast layout! Learn more

10-Day Weather Forecast

Advertisements
Track Severe Weather on mobile